sensor_id;sensor_type;location;lat;lon;timestamp;P1;durP1;ratioP1;P2;durP2;ratioP2
7883;SDS011;3987;51.458;7.238;2023-12-20T00:05:30;69.95;;;31.60;;
7883;SDS011;3987;51.458;7.238;2023-12-20T00:20:34;122.63;;;43.37;;
7883;SDS011;3987;51.458;7.238;2023-12-20T00:35:34;106.20;;;38.80;;
7883;SDS011;3987;51.458;7.238;2023-12-20T00:50:35;57.42;;;25.65;;
7883;SDS011;3987;51.458;7.238;2023-12-20T01:05:35;41.35;;;20.90;;
7883;SDS011;3987;51.458;7.238;2023-12-20T01:20:36;32.67;;;17.00;;
7883;SDS011;3987;51.458;7.238;2023-12-20T01:35:36;26.30;;;14.87;;
7883;SDS011;3987;51.458;7.238;2023-12-20T01:50:37;30.52;;;15.13;;
7883;SDS011;3987;51.458;7.238;2023-12-20T02:05:38;25.33;;;11.93;;
7883;SDS011;3987;51.458;7.238;2023-12-20T02:20:39;25.42;;;11.18;;
7883;SDS011;3987;51.458;7.238;2023-12-20T02:35:39;30.87;;;16.57;;
7883;SDS011;3987;51.458;7.238;2023-12-20T02:50:40;34.97;;;18.33;;
7883;SDS011;3987;51.458;7.238;2023-12-20T03:05:40;28.53;;;18.07;;
7883;SDS011;3987;51.458;7.238;2023-12-20T03:20:41;30.98;;;18.52;;
7883;SDS011;3987;51.458;7.238;2023-12-20T03:35:41;32.00;;;15.40;;
7883;SDS011;3987;51.458;7.238;2023-12-20T03:50:42;24.30;;;14.83;;
7883;SDS011;3987;51.458;7.238;2023-12-20T04:05:43;27.25;;;14.38;;
7883;SDS011;3987;51.458;7.238;2023-12-20T04:20:44;25.33;;;11.97;;
7883;SDS011;3987;51.458;7.238;2023-12-20T04:35:44;29.50;;;15.13;;
7883;SDS011;3987;51.458;7.238;2023-12-20T04:50:46;29.07;;;15.70;;
7883;SDS011;3987;51.458;7.238;2023-12-20T05:05:46;30.10;;;13.70;;
7883;SDS011;3987;51.458;7.238;2023-12-20T05:20:47;33.30;;;15.80;;
7883;SDS011;3987;51.458;7.238;2023-12-20T05:35:47;28.73;;;15.52;;
7883;SDS011;3987;51.458;7.238;2023-12-20T05:50:47;24.30;;;14.83;;
7883;SDS011;3987;51.458;7.238;2023-12-20T06:05:51;39.93;;;18.87;;
7883;SDS011;3987;51.458;7.238;2023-12-20T06:20:52;43.17;;;21.80;;
7883;SDS011;3987;51.458;7.238;2023-12-20T06:35:52;33.63;;;19.23;;
7883;SDS011;3987;51.458;7.238;2023-12-20T06:50:53;29.58;;;17.75;;
7883;SDS011;3987;51.458;7.238;2023-12-20T07:05:53;35.25;;;19.20;;
7883;SDS011;3987;51.458;7.238;2023-12-20T07:20:53;28.30;;;15.70;;
7883;SDS011;3987;51.458;7.238;2023-12-20T07:35:55;27.70;;;15.03;;
7883;SDS011;3987;51.458;7.238;2023-12-20T07:50:55;30.93;;;15.27;;
7883;SDS011;3987;51.458;7.238;2023-12-20T08:05:56;25.07;;;13.57;;
7883;SDS011;3987;51.458;7.238;2023-12-20T08:20:59;29.00;;;14.63;;
7883;SDS011;3987;51.458;7.238;2023-12-20T08:36:00;25.60;;;13.05;;
7883;SDS011;3987;51.458;7.238;2023-12-20T08:51:00;27.83;;;11.77;;
7883;SDS011;3987;51.458;7.238;2023-12-20T09:06:01;26.15;;;11.88;;
7883;SDS011;3987;51.458;7.238;2023-12-20T09:21:01;23.77;;;10.18;;
7883;SDS011;3987;51.458;7.238;2023-12-20T09:36:02;20.33;;;9.15;;
7883;SDS011;3987;51.458;7.238;2023-12-20T09:51:03;15.27;;;8.27;;
7883;SDS011;3987;51.458;7.238;2023-12-20T10:06:03;21.27;;;8.10;;
7883;SDS011;3987;51.458;7.238;2023-12-20T10:21:04;14.55;;;7.65;;
7883;SDS011;3987;51.458;7.238;2023-12-20T10:36:06;19.37;;;8.60;;
7883;SDS011;3987;51.458;7.238;2023-12-20T10:51:06;15.82;;;9.10;;
7883;SDS011;3987;51.458;7.238;2023-12-20T11:21:24;19.53;;;9.60;;
7883;SDS011;3987;51.458;7.238;2023-12-20T11:36:25;15.25;;;9.68;;
7883;SDS011;3987;51.458;7.238;2023-12-20T11:51:25;20.30;;;10.32;;
7883;SDS011;3987;51.458;7.238;2023-12-20T12:06:26;26.80;;;13.30;;
7883;SDS011;3987;51.458;7.238;2023-12-20T12:21:26;31.95;;;17.13;;
7883;SDS011;3987;51.458;7.238;2023-12-20T12:36:27;28.70;;;14.50;;
7883;SDS011;3987;51.458;7.238;2023-12-20T12:51:28;24.00;;;14.97;;
7883;SDS011;3987;51.458;7.238;2023-12-20T13:06:29;23.93;;;13.67;;
7883;SDS011;3987;51.458;7.238;2023-12-20T13:21:29;21.98;;;13.20;;
7883;SDS011;3987;51.458;7.238;2023-12-20T13:36:31;26.20;;;13.57;;
7883;SDS011;3987;51.458;7.238;2023-12-20T13:51:31;20.25;;;14.02;;
7883;SDS011;3987;51.458;7.238;2023-12-20T14:06:32;24.17;;;16.50;;
7883;SDS011;3987;51.458;7.238;2023-12-20T14:21:33;22.70;;;15.77;;
7883;SDS011;3987;51.458;7.238;2023-12-20T14:36:34;20.65;;;15.30;;
7883;SDS011;3987;51.458;7.238;2023-12-20T14:51:34;29.33;;;20.50;;
7883;SDS011;3987;51.458;7.238;2023-12-20T15:06:37;31.07;;;20.13;;
7883;SDS011;3987;51.458;7.238;2023-12-20T15:21:37;33.83;;;20.97;;
7883;SDS011;3987;51.458;7.238;2023-12-20T15:36:42;29.40;;;20.02;;
7883;SDS011;3987;51.458;7.238;2023-12-20T15:51:44;29.57;;;20.77;;
7883;SDS011;3987;51.458;7.238;2023-12-20T16:06:45;31.43;;;19.17;;
7883;SDS011;3987;51.458;7.238;2023-12-20T16:21:45;28.63;;;19.17;;
7883;SDS011;3987;51.458;7.238;2023-12-20T16:36:50;25.58;;;18.15;;
7883;SDS011;3987;51.458;7.238;2023-12-20T16:51:52;22.83;;;17.93;;
7883;SDS011;3987;51.458;7.238;2023-12-20T17:06:52;32.70;;;20.73;;
7883;SDS011;3987;51.458;7.238;2023-12-20T17:21:52;27.77;;;18.07;;
7883;SDS011;3987;51.458;7.238;2023-12-20T17:36:53;30.57;;;18.73;;
7883;SDS011;3987;51.458;7.238;2023-12-20T17:51:53;26.87;;;17.77;;
7883;SDS011;3987;51.458;7.238;2023-12-20T18:06:54;29.40;;;17.63;;
7883;SDS011;3987;51.458;7.238;2023-12-20T18:21:54;24.98;;;16.33;;
7883;SDS011;3987;51.458;7.238;2023-12-20T18:36:55;28.73;;;17.48;;
7883;SDS011;3987;51.458;7.238;2023-12-20T18:51:55;24.27;;;15.95;;
7883;SDS011;3987;51.458;7.238;2023-12-20T19:06:56;25.93;;;16.33;;
7883;SDS011;3987;51.458;7.238;2023-12-20T19:21:58;24.30;;;15.57;;
7883;SDS011;3987;51.458;7.238;2023-12-20T19:36:58;27.50;;;16.15;;
7883;SDS011;3987;51.458;7.238;2023-12-20T19:51:59;27.17;;;15.93;;
7883;SDS011;3987;51.458;7.238;2023-12-20T20:06:59;24.73;;;16.87;;
7883;SDS011;3987;51.458;7.238;2023-12-20T20:22:00;25.25;;;17.13;;
7883;SDS011;3987;51.458;7.238;2023-12-20T20:37:00;21.85;;;18.55;;
7883;SDS011;3987;51.458;7.238;2023-12-20T20:52:02;25.05;;;19.60;;
7883;SDS011;3987;51.458;7.238;2023-12-20T21:07:02;32.35;;;21.10;;
7883;SDS011;3987;51.458;7.238;2023-12-20T21:22:03;21.73;;;16.60;;
7883;SDS011;3987;51.458;7.238;2023-12-20T21:37:03;14.40;;;13.33;;
7883;SDS011;3987;51.458;7.238;2023-12-20T21:52:04;13.43;;;12.33;;
7883;SDS011;3987;51.458;7.238;2023-12-20T22:07:05;14.30;;;12.90;;
7883;SDS011;3987;51.458;7.238;2023-12-20T22:22:05;18.10;;;16.20;;
7883;SDS011;3987;51.458;7.238;2023-12-20T22:37:06;21.63;;;18.17;;
7883;SDS011;3987;51.458;7.238;2023-12-20T22:52:06;18.08;;;16.35;;
7883;SDS011;3987;51.458;7.238;2023-12-20T23:07:07;17.92;;;16.15;;
7883;SDS011;3987;51.458;7.238;2023-12-20T23:22:09;16.20;;;14.87;;
7883;SDS011;3987;51.458;7.238;2023-12-20T23:37:09;15.37;;;13.77;;
7883;SDS011;3987;51.458;7.238;2023-12-20T23:52:11;18.60;;;17.00;;
